createdAt,value
2023-02-06T00:00:39.611Z,6.21
2023-02-06T00:03:45.208Z,6.54
2023-02-06T00:06:49.400Z,6.57
2023-02-06T00:09:58.715Z,6.72
2023-02-06T00:13:06.196Z,6.55
2023-02-06T00:16:10.320Z,6.37
2023-02-06T00:19:14.284Z,6.28
2023-02-06T00:22:18.092Z,6.22
2023-02-06T00:25:22.065Z,6.08
2023-02-06T00:28:27.653Z,6.09
2023-02-06T00:31:31.933Z,6.13
2023-02-06T00:34:36.002Z,6.13
2023-02-06T00:37:39.931Z,6.03
2023-02-06T00:40:48.485Z,6.08
2023-02-06T00:43:52.411Z,5.96
2023-02-06T00:46:56.514Z,6.17
2023-02-06T00:50:00.806Z,5.97
2023-02-06T00:53:04.875Z,5.89
2023-02-06T00:56:09.558Z,5.84
2023-02-06T00:59:13.555Z,5.78
2023-02-06T01:02:17.681Z,5.64
2023-02-06T01:05:21.632Z,5.80
2023-02-06T01:08:25.674Z,5.97
2023-02-06T01:11:29.525Z,5.98
2023-02-06T01:14:33.510Z,5.69
2023-02-06T01:17:37.546Z,5.77
2023-02-06T01:20:42.934Z,6.04
2023-02-06T01:23:47.151Z,5.92
2023-02-06T01:26:50.824Z,5.95
2023-02-06T01:29:54.695Z,5.73
2023-02-06T01:32:58.649Z,5.82
2023-02-06T01:36:05.627Z,5.63
2023-02-06T01:39:11.746Z,5.54
2023-02-06T01:42:17.039Z,5.40
2023-02-06T01:45:21.157Z,5.82
2023-02-06T01:48:25.275Z,5.73
2023-02-06T01:51:28.983Z,5.79
2023-02-06T01:54:32.906Z,5.80
2023-02-06T01:57:38.234Z,5.38
2023-02-06T02:00:45.393Z,5.51
2023-02-06T02:03:49.257Z,5.53
2023-02-06T02:06:53.388Z,5.65
2023-02-06T02:09:59.148Z,5.60
2023-02-06T02:13:06.993Z,6.06
2023-02-06T02:16:12.707Z,5.78
2023-02-06T02:19:16.888Z,6.09
2023-02-06T02:22:23.664Z,6.01
2023-02-06T02:25:27.575Z,5.72
2023-02-06T02:28:31.502Z,5.81
2023-02-06T02:31:35.425Z,5.70
2023-02-06T02:34:40.482Z,5.60
2023-02-06T02:37:44.588Z,5.56
2023-02-06T02:40:48.590Z,5.19
2023-02-06T02:43:52.772Z,5.30
2023-02-06T02:46:56.615Z,5.16
2023-02-06T02:50:00.708Z,5.52
2023-02-06T02:53:06.084Z,5.37
2023-02-06T02:56:10.134Z,5.83
2023-02-06T02:59:14.350Z,5.41
2023-02-06T03:02:19.763Z,5.39
2023-02-06T03:05:25.191Z,5.56
2023-02-06T03:08:29.482Z,5.45
2023-02-06T03:11:33.303Z,5.73
2023-02-06T03:14:39.244Z,5.73
2023-02-06T03:17:43.313Z,6.05
2023-02-06T03:20:48.625Z,5.80
2023-02-06T03:23:54.699Z,5.86
2023-02-06T03:27:00.180Z,5.79
2023-02-06T03:30:04.418Z,5.07
2023-02-06T03:33:08.153Z,5.27
2023-02-06T03:36:12.220Z,4.73
2023-02-06T03:39:16.278Z,4.82
2023-02-06T03:42:20.204Z,4.95
2023-02-06T03:45:27.272Z,5.00
2023-02-06T03:48:33.182Z,5.06
2023-02-06T03:51:37.207Z,5.12
2023-02-06T03:54:41.367Z,4.95
2023-02-06T03:57:48.381Z,4.94
2023-02-06T04:00:52.586Z,5.17
2023-02-06T04:03:56.925Z,5.12
2023-02-06T04:07:01.035Z,5.32
2023-02-06T04:10:04.945Z,5.35
2023-02-06T04:13:10.485Z,5.59
2023-02-06T04:16:16.934Z,5.37
2023-02-06T04:19:21.070Z,5.62
2023-02-06T04:22:25.021Z,5.76
2023-02-06T04:25:29.048Z,5.76
2023-02-06T04:28:32.632Z,5.33
2023-02-06T04:31:36.899Z,5.07
2023-02-06T04:34:41.060Z,5.05
2023-02-06T04:37:44.925Z,5.40
2023-02-06T04:40:48.964Z,5.31
2023-02-06T04:43:57.369Z,5.80
2023-02-06T04:47:03.604Z,5.22
2023-02-06T04:50:07.581Z,5.18
2023-02-06T04:53:11.469Z,5.27
2023-02-06T04:56:16.596Z,5.19
2023-02-06T04:59:20.865Z,5.16
2023-02-06T05:02:26.213Z,4.90
2023-02-06T05:05:30.572Z,5.01
2023-02-06T05:08:36.063Z,5.07
2023-02-06T05:11:40.253Z,5.03
2023-02-06T05:14:45.159Z,5.35
2023-02-06T05:17:49.242Z,5.33
2023-02-06T05:20:53.424Z,4.83
2023-02-06T05:24:00.493Z,4.95
2023-02-06T05:27:04.605Z,5.24
2023-02-06T05:30:08.607Z,5.03
2023-02-06T05:33:15.564Z,5.31
2023-02-06T05:36:25.778Z,4.97
2023-02-06T05:39:29.609Z,4.82
2023-02-06T05:42:33.535Z,5.00
2023-02-06T05:45:38.759Z,5.06
2023-02-06T05:48:42.769Z,5.07
2023-02-06T05:51:46.676Z,4.83
2023-02-06T05:54:50.912Z,5.30
2023-02-06T05:57:54.594Z,5.13
2023-02-06T06:00:58.675Z,5.31
2023-02-06T06:04:03.265Z,4.85
2023-02-06T06:07:08.968Z,5.17
2023-02-06T06:10:13.347Z,5.08
2023-02-06T06:13:17.674Z,5.10
2023-02-06T06:16:21.788Z,5.00
2023-02-06T06:19:25.968Z,5.06
2023-02-06T06:22:29.673Z,5.27
2023-02-06T06:25:33.912Z,5.03
2023-02-06T06:28:38.063Z,5.26
2023-02-06T06:31:42.288Z,5.20
2023-02-06T06:34:46.379Z,5.09
2023-02-06T06:37:50.499Z,4.90
2023-02-06T06:40:58.282Z,5.06
2023-02-06T06:44:04.540Z,5.50
2023-02-06T06:47:08.489Z,5.15
2023-02-06T06:50:12.298Z,5.23
2023-02-06T06:53:19.336Z,4.87
2023-02-06T06:56:29.996Z,5.19
2023-02-06T06:59:34.137Z,5.17
2023-02-06T07:02:39.535Z,4.84
2023-02-06T07:05:43.657Z,5.28
2023-02-06T07:08:49.519Z,5.03
2023-02-06T07:11:55.174Z,4.91
2023-02-06T07:14:59.258Z,4.77
2023-02-06T07:18:11.580Z,4.59
2023-02-06T07:21:15.847Z,5.05
2023-02-06T07:24:19.570Z,4.90
2023-02-06T07:27:23.691Z,4.85
2023-02-06T07:30:29.186Z,5.13
2023-02-06T07:33:34.631Z,4.60
2023-02-06T07:36:38.599Z,5.11
2023-02-06T07:39:42.829Z,5.06
2023-02-06T07:42:46.909Z,5.20
2023-02-06T07:45:51.034Z,5.23
2023-02-06T07:48:56.308Z,4.87
2023-02-06T07:52:00.298Z,5.44
2023-02-06T07:55:03.948Z,5.44
2023-02-06T07:58:09.809Z,5.50
2023-02-06T08:01:15.631Z,5.76
2023-02-06T08:04:22.905Z,5.87
2023-02-06T08:07:28.882Z,5.56
2023-02-06T08:10:34.093Z,5.42
2023-02-06T08:13:38.139Z,5.51
2023-02-06T08:16:42.323Z,5.99
2023-02-06T08:19:46.276Z,5.73
2023-02-06T08:22:50.600Z,5.81
2023-02-06T08:25:54.795Z,5.87
2023-02-06T08:28:58.568Z,5.99
2023-02-06T08:32:02.634Z,5.67
2023-02-06T08:35:06.762Z,5.96
2023-02-06T08:38:10.903Z,6.01
2023-02-06T08:41:14.913Z,6.41
2023-02-06T08:44:18.768Z,5.69
2023-02-06T08:47:24.097Z,5.69
2023-02-06T08:50:28.372Z,5.82
2023-02-06T08:53:32.584Z,5.90
2023-02-06T08:56:36.526Z,5.79
2023-02-06T08:59:40.302Z,6.02
2023-02-06T09:02:45.754Z,5.83
2023-02-06T09:05:49.930Z,6.13
2023-02-06T09:08:54.308Z,6.13
2023-02-06T09:11:58.588Z,6.02
2023-02-06T09:15:02.047Z,6.48
2023-02-06T09:18:08.245Z,6.29
2023-02-06T09:21:12.456Z,6.54
2023-02-06T09:24:18.768Z,5.95
2023-02-06T09:27:22.709Z,6.18
2023-02-06T09:30:26.547Z,6.22
2023-02-06T09:33:31.463Z,6.38
2023-02-06T09:36:35.326Z,6.18
2023-02-06T09:39:39.598Z,6.48
2023-02-06T09:42:43.374Z,6.03
2023-02-06T09:45:47.111Z,6.36
2023-02-06T09:48:51.201Z,6.27
2023-02-06T09:51:55.351Z,6.29
2023-02-06T09:54:59.640Z,6.69
2023-02-06T09:58:04.710Z,6.77
2023-02-06T10:01:08.937Z,6.04
2023-02-06T10:04:12.707Z,6.07
2023-02-06T10:07:16.688Z,6.47
2023-02-06T10:10:26.073Z,6.69
2023-02-06T10:13:33.263Z,6.51
2023-02-06T10:16:37.280Z,6.45
2023-02-06T10:19:43.077Z,6.39
2023-02-06T10:22:51.420Z,6.60
2023-02-06T10:25:56.492Z,6.80
2023-02-06T10:29:00.572Z,6.73
2023-02-06T10:32:06.971Z,6.81
2023-02-06T10:35:10.960Z,6.33
2023-02-06T10:38:17.226Z,6.55
2023-02-06T10:41:21.429Z,6.99
2023-02-06T10:44:25.238Z,7.25
2023-02-06T10:47:29.053Z,6.63
2023-02-06T10:50:33.177Z,6.89
2023-02-06T10:53:38.517Z,6.94
2023-02-06T10:56:42.649Z,7.14
2023-02-06T10:59:46.525Z,7.53
2023-02-06T11:03:01.329Z,7.12
2023-02-06T11:06:12.967Z,7.64
2023-02-06T11:09:17.125Z,7.15
2023-02-06T11:12:21.040Z,6.90
2023-02-06T11:15:25.447Z,6.94
2023-02-06T11:18:29.108Z,7.36
2023-02-06T11:21:32.860Z,7.74
2023-02-06T11:24:38.361Z,7.75
2023-02-06T11:27:44.270Z,7.12
2023-02-06T11:30:48.444Z,7.21
2023-02-06T11:33:53.359Z,7.32
2023-02-06T11:36:59.771Z,7.00
2023-02-06T11:40:06.723Z,7.53
2023-02-06T11:43:10.708Z,7.34
2023-02-06T11:46:14.751Z,7.36
2023-02-06T11:49:21.364Z,7.04
2023-02-06T11:52:26.542Z,7.14
2023-02-06T11:55:32.462Z,7.26
2023-02-06T11:58:37.635Z,6.81
2023-02-06T12:01:41.609Z,6.99
2023-02-06T12:04:45.635Z,6.63
2023-02-06T12:08:00.128Z,6.57
2023-02-06T12:11:04.051Z,6.69
2023-02-06T12:14:08.210Z,6.86
2023-02-06T12:17:12.497Z,6.66
2023-02-06T12:20:16.160Z,7.06
2023-02-06T12:23:20.251Z,6.54
2023-02-06T12:26:25.550Z,6.97
2023-02-06T12:29:29.777Z,7.30
2023-02-06T12:32:33.768Z,6.84
2023-02-06T12:35:38.173Z,7.09
2023-02-06T12:38:42.282Z,6.78
2023-02-06T12:41:46.037Z,6.71
2023-02-06T12:44:51.516Z,6.58
2023-02-06T12:47:55.699Z,6.75
2023-02-06T12:50:59.783Z,6.87
2023-02-06T12:54:03.674Z,7.15
2023-02-06T12:57:07.936Z,7.15
2023-02-06T13:00:12.368Z,6.75
2023-02-06T13:03:16.111Z,6.61
2023-02-06T13:06:20.168Z,6.89
2023-02-06T13:09:23.916Z,7.30
2023-02-06T13:12:28.025Z,7.66
2023-02-06T13:15:34.097Z,7.74
2023-02-06T13:18:38.276Z,7.67
2023-02-06T13:21:43.414Z,7.64
2023-02-06T13:24:47.137Z,7.77
2023-02-06T13:27:51.052Z,7.32
2023-02-06T13:30:55.315Z,7.82
2023-02-06T13:34:06.700Z,7.30
2023-02-06T13:37:10.625Z,7.40
2023-02-06T13:40:14.596Z,7.34
2023-02-06T13:43:19.674Z,7.27
2023-02-06T13:46:23.791Z,7.28
2023-02-06T13:49:28.968Z,7.50
2023-02-06T13:52:40.394Z,7.47
2023-02-06T13:55:45.387Z,7.45
2023-02-06T13:58:51.018Z,7.50
2023-02-06T14:01:55.190Z,7.61
2023-02-06T14:04:59.390Z,7.85
2023-02-06T14:08:04.486Z,7.81
2023-02-06T14:11:11.849Z,7.59
2023-02-06T14:14:16.081Z,7.74
2023-02-06T14:17:21.436Z,7.88
2023-02-06T14:20:25.603Z,7.56
2023-02-06T14:23:29.737Z,7.63
2023-02-06T14:26:33.772Z,7.24
2023-02-06T14:29:37.902Z,6.83
2023-02-06T14:32:41.972Z,7.50
2023-02-06T14:35:49.002Z,7.84
2023-02-06T14:38:53.025Z,8.09
2023-02-06T14:41:57.140Z,7.97
2023-02-06T14:45:01.222Z,7.21
2023-02-06T14:48:05.168Z,7.40
2023-02-06T14:51:10.383Z,8.02
2023-02-06T14:54:14.327Z,7.71
2023-02-06T14:57:19.626Z,7.55
2023-02-06T15:00:24.076Z,7.51
2023-02-06T15:03:30.340Z,7.56
2023-02-06T15:06:34.591Z,7.72
2023-02-06T15:09:43.062Z,7.42
2023-02-06T15:12:47.710Z,7.67
2023-02-06T15:15:51.804Z,7.77
2023-02-06T15:18:56.177Z,8.13
2023-02-06T15:22:00.407Z,7.66
2023-02-06T15:25:04.204Z,7.30
2023-02-06T15:28:08.442Z,7.29
2023-02-06T15:31:12.501Z,7.20
2023-02-06T15:34:16.461Z,6.81
2023-02-06T15:40:42.183Z,6.64
2023-02-06T15:43:46.448Z,6.79
2023-02-06T15:46:54.672Z,6.89
2023-02-06T15:49:58.879Z,7.23
2023-02-06T15:53:04.341Z,6.88
2023-02-06T15:56:08.673Z,7.36
2023-02-06T15:59:13.708Z,7.57
2023-02-06T16:02:17.766Z,7.49
2023-02-06T16:05:21.519Z,6.75
2023-02-06T16:08:25.737Z,6.61
2023-02-06T16:11:29.884Z,6.58
2023-02-06T16:14:33.557Z,6.42
2023-02-06T16:17:37.611Z,6.73
2023-02-06T16:20:41.900Z,6.53
2023-02-06T16:23:52.388Z,6.70
2023-02-06T16:26:56.796Z,6.45
2023-02-06T16:30:02.138Z,6.56
2023-02-06T16:33:06.182Z,6.60
2023-02-06T16:36:11.143Z,6.59
2023-02-06T16:39:15.114Z,6.56
2023-02-06T16:42:19.190Z,6.82
2023-02-06T16:45:23.223Z,6.68
2023-02-06T16:48:28.466Z,6.56
2023-02-06T16:51:34.416Z,6.48
2023-02-06T16:54:38.466Z,6.74
2023-02-06T16:57:44.725Z,6.78
2023-02-06T17:00:48.707Z,6.31
2023-02-06T17:03:59.025Z,6.81
2023-02-06T17:07:03.406Z,6.23
2023-02-06T17:10:07.120Z,6.36
2023-02-06T17:13:12.330Z,6.38
2023-02-06T17:16:16.409Z,6.85
2023-02-06T17:19:22.139Z,6.54
2023-02-06T17:22:27.240Z,6.54
2023-02-06T17:25:31.632Z,5.98
2023-02-06T17:28:36.040Z,6.28
2023-02-06T17:31:42.618Z,6.23
2023-02-06T17:34:46.636Z,5.64
2023-02-06T17:37:51.789Z,6.02
2023-02-06T17:40:55.621Z,5.91
2023-02-06T17:43:59.883Z,6.24
2023-02-06T17:47:15.447Z,5.82
2023-02-06T17:50:19.517Z,5.45
2023-02-06T17:53:23.752Z,5.42
2023-02-06T17:56:27.853Z,5.30
2023-02-06T17:59:32.100Z,5.12
2023-02-06T18:02:36.903Z,5.49
2023-02-06T18:05:44.521Z,5.64
2023-02-06T18:08:48.311Z,5.97
2023-02-06T18:11:52.478Z,5.33
2023-02-06T18:14:57.425Z,5.43
2023-02-06T18:18:00.989Z,5.24
2023-02-06T18:21:04.869Z,5.29
2023-02-06T18:24:09.731Z,5.37
2023-02-06T18:27:13.767Z,5.14
2023-02-06T18:30:23.622Z,5.19
2023-02-06T18:33:28.466Z,5.66
2023-02-06T18:36:32.693Z,5.23
2023-02-06T18:39:36.608Z,5.46
2023-02-06T18:42:42.108Z,5.05
2023-02-06T18:45:48.543Z,4.78
2023-02-06T18:48:52.891Z,4.64
2023-02-06T18:51:57.253Z,5.08
2023-02-06T18:55:03.311Z,4.62
2023-02-06T18:58:07.211Z,5.20
2023-02-06T19:01:11.124Z,5.17
2023-02-06T19:04:15.273Z,5.08
2023-02-06T19:07:19.384Z,5.03
2023-02-06T19:10:23.481Z,5.00
2023-02-06T19:13:27.239Z,5.31
2023-02-06T19:16:31.123Z,5.14
2023-02-06T19:19:35.375Z,5.04
2023-02-06T19:22:39.263Z,5.14
2023-02-06T19:25:44.815Z,4.81
2023-02-06T19:28:52.305Z,4.77
2023-02-06T19:31:58.626Z,4.95
2023-02-06T19:35:02.680Z,5.03
2023-02-06T19:38:09.042Z,5.23
2023-02-06T19:41:12.980Z,4.48
2023-02-06T19:44:18.663Z,4.48
2023-02-06T19:47:24.244Z,4.77
2023-02-06T19:50:28.573Z,4.55
2023-02-06T19:53:36.097Z,4.47
2023-02-06T19:56:41.126Z,4.67
2023-02-06T19:59:47.441Z,4.59
2023-02-06T20:02:53.437Z,4.73
2023-02-06T20:05:57.952Z,4.98
2023-02-06T20:09:02.664Z,4.60
2023-02-06T20:12:06.420Z,4.53
2023-02-06T20:15:10.509Z,4.32
2023-02-06T20:18:17.491Z,4.75
2023-02-06T20:21:21.440Z,4.44
2023-02-06T20:24:25.747Z,4.54
2023-02-06T20:27:29.959Z,4.78
2023-02-06T20:30:34.325Z,4.74
2023-02-06T20:33:39.868Z,3.95
2023-02-06T20:36:43.745Z,4.09
2023-02-06T20:39:47.989Z,4.34
2023-02-06T20:42:52.543Z,4.22
2023-02-06T20:45:56.559Z,4.61
2023-02-06T20:49:00.507Z,4.51
2023-02-06T20:52:05.235Z,4.09
2023-02-06T20:55:09.505Z,4.41
2023-02-06T20:58:13.768Z,4.48
2023-02-06T21:01:23.725Z,4.43
2023-02-06T21:04:28.008Z,4.37
2023-02-06T21:07:31.835Z,3.90
2023-02-06T21:10:36.191Z,4.03
2023-02-06T21:13:40.639Z,4.55
2023-02-06T21:16:44.882Z,4.41
2023-02-06T21:19:48.760Z,3.66
2023-02-06T21:22:53.708Z,3.80
2023-02-06T21:25:57.643Z,4.16
2023-02-06T21:29:06.313Z,4.44
2023-02-06T21:32:13.898Z,4.50
2023-02-06T21:35:18.371Z,4.07
2023-02-06T21:38:23.482Z,4.15
2023-02-06T21:41:27.628Z,4.08
2023-02-06T21:44:31.737Z,4.16
2023-02-06T21:47:35.523Z,4.17
2023-02-06T21:50:39.345Z,4.30
2023-02-06T21:53:45.119Z,4.62
2023-02-06T21:56:51.510Z,4.09
2023-02-06T21:59:55.629Z,4.10
2023-02-06T22:02:59.610Z,4.02
2023-02-06T22:06:03.671Z,3.82
2023-02-06T22:09:07.857Z,3.50
2023-02-06T22:12:12.084Z,3.46
2023-02-06T22:15:16.171Z,3.54
2023-02-06T22:18:19.843Z,3.25
2023-02-06T22:21:23.830Z,3.26
2023-02-06T22:24:31.116Z,3.65
2023-02-06T22:27:35.297Z,3.52
2023-02-06T22:30:40.872Z,3.60
2023-02-06T22:33:44.886Z,3.18
2023-02-06T22:36:48.456Z,3.28
2023-02-06T22:39:52.754Z,3.11
2023-02-06T22:42:56.545Z,3.50
2023-02-06T22:46:00.583Z,3.10
2023-02-06T22:49:04.618Z,3.53
2023-02-06T22:52:08.553Z,3.07
2023-02-06T22:55:12.638Z,3.36
2023-02-06T22:58:16.766Z,2.92
2023-02-06T23:01:20.902Z,2.73
2023-02-06T23:04:24.709Z,2.76
2023-02-06T23:07:28.384Z,2.74
2023-02-06T23:10:32.629Z,3.14
2023-02-06T23:13:36.522Z,3.51
2023-02-06T23:16:42.774Z,3.37
2023-02-06T23:19:46.605Z,3.63
2023-02-06T23:22:50.307Z,3.72
2023-02-06T23:25:54.471Z,3.59
2023-02-06T23:28:58.436Z,3.74
2023-02-06T23:32:02.322Z,4.18
2023-02-06T23:35:08.048Z,3.70
2023-02-06T23:38:12.237Z,3.39
2023-02-06T23:41:16.393Z,3.46
2023-02-06T23:44:20.181Z,3.50
2023-02-06T23:47:23.986Z,3.70
2023-02-06T23:50:27.956Z,3.45
2023-02-06T23:53:32.161Z,3.75
2023-02-06T23:56:36.405Z,3.45
2023-02-06T23:59:40.473Z,3.40
